Esneux, Belgium
Current Conditions -  °F | °C
As of 5:50 PM on Saturday 22 Nov 2014 (Local Time) from EBLG Reporting Station
Clear Clear  
Wind Chill: 52°   Ceiling: Unl
Heat Index: 52°   Visibility: 6mi
Dew Point: 45°   Wind: 6mph
Humidity: 76%   Direction: 150°SSE
Pressure: 30.03"   Gusts: NA
Location:  50.54°N, 5.57°E
Report Text: EBLG 221650Z 15005KT CAVOK 11/07 Q1017 NOSIG
Loading
Personal Weather Stations






























Interactive Weather Map New forecast layout! Learn more

10-Day Weather Forecast

Advertisements
Track Severe Weather on mobile